sensor_id;sensor_type;location;lat;lon;timestamp;temperature;humidity
40808;DHT22;26523;52.504;13.498;2022-12-07T00:00:30;3.20;99.90
40808;DHT22;26523;52.504;13.498;2022-12-07T00:02:55;3.20;99.90
40808;DHT22;26523;52.504;13.498;2022-12-07T00:05:21;3.20;99.90
40808;DHT22;26523;52.504;13.498;2022-12-07T00:07:47;3.10;99.90
40808;DHT22;26523;52.504;13.498;2022-12-07T00:10:12;3.10;99.90
40808;DHT22;26523;52.504;13.498;2022-12-07T00:12:38;3.10;99.90
40808;DHT22;26523;52.504;13.498;2022-12-07T00:15:04;3.10;99.90
40808;DHT22;26523;52.504;13.498;2022-12-07T00:17:30;3.00;99.90
40808;DHT22;26523;52.504;13.498;2022-12-07T00:19:55;3.00;99.90
40808;DHT22;26523;52.504;13.498;2022-12-07T00:22:21;3.00;99.90
40808;DHT22;26523;52.504;13.498;2022-12-07T00:24:47;3.00;99.90
40808;DHT22;26523;52.504;13.498;2022-12-07T00:27:12;3.00;99.90
40808;DHT22;26523;52.504;13.498;2022-12-07T00:29:38;3.00;99.90
40808;DHT22;26523;52.504;13.498;2022-12-07T00:32:03;3.00;99.90
40808;DHT22;26523;52.504;13.498;2022-12-07T00:34:29;3.00;99.90
40808;DHT22;26523;52.504;13.498;2022-12-07T00:36:55;3.00;99.90
40808;DHT22;26523;52.504;13.498;2022-12-07T00:39:20;3.00;99.90
40808;DHT22;26523;52.504;13.498;2022-12-07T00:41:46;2.90;99.90
40808;DHT22;26523;52.504;13.498;2022-12-07T00:44:12;2.90;99.90
40808;DHT22;26523;52.504;13.498;2022-12-07T00:46:37;2.80;99.90
40808;DHT22;26523;52.504;13.498;2022-12-07T00:49:03;2.80;99.90
40808;DHT22;26523;52.504;13.498;2022-12-07T00:51:29;2.80;99.90
40808;DHT22;26523;52.504;13.498;2022-12-07T00:53:55;2.70;99.90
40808;DHT22;26523;52.504;13.498;2022-12-07T00:56:26;2.70;99.90
40808;DHT22;26523;52.504;13.498;2022-12-07T00:58:57;2.60;99.90
40808;DHT22;26523;52.504;13.498;2022-12-07T01:01:24;2.60;99.90
40808;DHT22;26523;52.504;13.498;2022-12-07T01:03:51;2.60;99.90
40808;DHT22;26523;52.504;13.498;2022-12-07T01:06:18;2.60;99.90
40808;DHT22;26523;52.504;13.498;2022-12-07T01:08:44;2.60;99.90
40808;DHT22;26523;52.504;13.498;2022-12-07T01:11:13;2.50;99.90
40808;DHT22;26523;52.504;13.498;2022-12-07T01:13:39;2.50;99.90
40808;DHT22;26523;52.504;13.498;2022-12-07T01:16:06;2.40;99.90
40808;DHT22;26523;52.504;13.498;2022-12-07T01:18:35;2.40;99.90
40808;DHT22;26523;52.504;13.498;2022-12-07T01:21:07;2.30;99.90
40808;DHT22;26523;52.504;13.498;2022-12-07T01:23:34;2.30;99.90
40808;DHT22;26523;52.504;13.498;2022-12-07T01:26:02;2.20;99.90
40808;DHT22;26523;52.504;13.498;2022-12-07T01:28:29;2.10;99.90
40808;DHT22;26523;52.504;13.498;2022-12-07T01:31:03;2.10;99.90
40808;DHT22;26523;52.504;13.498;2022-12-07T01:33:31;2.10;99.90
40808;DHT22;26523;52.504;13.498;2022-12-07T01:36:08;2.10;99.90
40808;DHT22;26523;52.504;13.498;2022-12-07T01:38:38;2.10;99.90
40808;DHT22;26523;52.504;13.498;2022-12-07T01:41:03;2.20;99.90
40808;DHT22;26523;52.504;13.498;2022-12-07T01:43:30;2.20;99.90
40808;DHT22;26523;52.504;13.498;2022-12-07T01:45:57;2.20;99.90
40808;DHT22;26523;52.504;13.498;2022-12-07T01:48:33;2.20;99.90
40808;DHT22;26523;52.504;13.498;2022-12-07T01:51:03;2.30;99.90
40808;DHT22;26523;52.504;13.498;2022-12-07T01:53:30;2.20;99.90
40808;DHT22;26523;52.504;13.498;2022-12-07T01:55:58;2.20;99.90
40808;DHT22;26523;52.504;13.498;2022-12-07T01:58:25;2.20;99.90
40808;DHT22;26523;52.504;13.498;2022-12-07T02:00:50;2.20;99.90
40808;DHT22;26523;52.504;13.498;2022-12-07T02:03:24;2.20;99.90
40808;DHT22;26523;52.504;13.498;2022-12-07T02:05:53;2.20;99.90
40808;DHT22;26523;52.504;13.498;2022-12-07T02:08:20;2.30;99.90
40808;DHT22;26523;52.504;13.498;2022-12-07T02:10:46;2.20;99.90
40808;DHT22;26523;52.504;13.498;2022-12-07T02:13:15;2.30;99.90
40808;DHT22;26523;52.504;13.498;2022-12-07T02:21:40;2.20;99.90
40808;DHT22;26523;52.504;13.498;2022-12-07T02:24:35;2.20;99.90
40808;DHT22;26523;52.504;13.498;2022-12-07T02:30:09;2.10;99.90
40808;DHT22;26523;52.504;13.498;2022-12-07T02:33:04;2.00;99.90
40808;DHT22;26523;52.504;13.498;2022-12-07T02:38:14;2.00;99.90
40808;DHT22;26523;52.504;13.498;2022-12-07T02:40:43;1.90;99.90
40808;DHT22;26523;52.504;13.498;2022-12-07T02:43:21;2.00;99.90
40808;DHT22;26523;52.504;13.498;2022-12-07T02:45:51;1.90;99.90
40808;DHT22;26523;52.504;13.498;2022-12-07T02:48:19;1.90;99.90
40808;DHT22;26523;52.504;13.498;2022-12-07T02:50:49;1.80;99.90
40808;DHT22;26523;52.504;13.498;2022-12-07T02:53:36;1.90;99.90
40808;DHT22;26523;52.504;13.498;2022-12-07T02:56:07;1.80;99.90
40808;DHT22;26523;52.504;13.498;2022-12-07T02:59:00;1.70;99.90
40808;DHT22;26523;52.504;13.498;2022-12-07T03:01:43;1.70;99.90
40808;DHT22;26523;52.504;13.498;2022-12-07T03:10:21;1.70;99.90
40808;DHT22;26523;52.504;13.498;2022-12-07T03:18:20;1.70;99.90
40808;DHT22;26523;52.504;13.498;2022-12-07T03:20:48;1.80;99.90
40808;DHT22;26523;52.504;13.498;2022-12-07T03:23:16;1.80;99.90
40808;DHT22;26523;52.504;13.498;2022-12-07T03:25:52;1.80;99.90
40808;DHT22;26523;52.504;13.498;2022-12-07T03:28:22;1.90;99.90
40808;DHT22;26523;52.504;13.498;2022-12-07T03:30:55;2.00;99.90
40808;DHT22;26523;52.504;13.498;2022-12-07T03:33:28;2.00;99.90
40808;DHT22;26523;52.504;13.498;2022-12-07T03:36:26;2.00;99.90
40808;DHT22;26523;52.504;13.498;2022-12-07T03:39:00;2.00;99.90
40808;DHT22;26523;52.504;13.498;2022-12-07T03:41:31;2.00;99.90
40808;DHT22;26523;52.504;13.498;2022-12-07T03:43:59;1.90;99.90
40808;DHT22;26523;52.504;13.498;2022-12-07T03:48:59;2.00;99.90
40808;DHT22;26523;52.504;13.498;2022-12-07T03:51:39;2.00;99.90
40808;DHT22;26523;52.504;13.498;2022-12-07T03:54:17;2.10;99.90
40808;DHT22;26523;52.504;13.498;2022-12-07T03:56:45;2.00;99.90
40808;DHT22;26523;52.504;13.498;2022-12-07T03:59:13;2.00;99.90
40808;DHT22;26523;52.504;13.498;2022-12-07T04:01:42;2.00;99.90
40808;DHT22;26523;52.504;13.498;2022-12-07T04:04:08;2.00;99.90
40808;DHT22;26523;52.504;13.498;2022-12-07T04:06:33;2.00;99.90
40808;DHT22;26523;52.504;13.498;2022-12-07T04:08:59;2.00;99.90
40808;DHT22;26523;52.504;13.498;2022-12-07T04:11:24;2.00;99.90
40808;DHT22;26523;52.504;13.498;2022-12-07T04:13:50;2.00;99.90
40808;DHT22;26523;52.504;13.498;2022-12-07T04:16:34;2.00;99.90
40808;DHT22;26523;52.504;13.498;2022-12-07T04:19:00;1.90;99.90
40808;DHT22;26523;52.504;13.498;2022-12-07T04:21:26;2.00;99.90
40808;DHT22;26523;52.504;13.498;2022-12-07T04:23:51;2.00;99.90
40808;DHT22;26523;52.504;13.498;2022-12-07T04:26:17;2.10;99.90
40808;DHT22;26523;52.504;13.498;2022-12-07T04:28:42;2.10;99.90
40808;DHT22;26523;52.504;13.498;2022-12-07T04:31:08;2.00;99.90
40808;DHT22;26523;52.504;13.498;2022-12-07T04:33:35;2.00;99.90
40808;DHT22;26523;52.504;13.498;2022-12-07T04:36:01;2.00;99.90
40808;DHT22;26523;52.504;13.498;2022-12-07T04:38:27;2.00;99.90
40808;DHT22;26523;52.504;13.498;2022-12-07T04:40:53;1.90;99.90
40808;DHT22;26523;52.504;13.498;2022-12-07T04:43:18;1.90;99.90
40808;DHT22;26523;52.504;13.498;2022-12-07T04:45:48;1.90;99.90
40808;DHT22;26523;52.504;13.498;2022-12-07T04:48:14;1.90;99.90
40808;DHT22;26523;52.504;13.498;2022-12-07T04:50:40;1.90;99.90
40808;DHT22;26523;52.504;13.498;2022-12-07T04:53:05;1.90;99.90
40808;DHT22;26523;52.504;13.498;2022-12-07T04:55:31;2.00;99.90
40808;DHT22;26523;52.504;13.498;2022-12-07T04:57:57;2.00;99.90
40808;DHT22;26523;52.504;13.498;2022-12-07T05:00:22;2.00;99.90
40808;DHT22;26523;52.504;13.498;2022-12-07T05:02:48;1.90;99.90
40808;DHT22;26523;52.504;13.498;2022-12-07T05:05:14;2.00;99.90
40808;DHT22;26523;52.504;13.498;2022-12-07T05:07:41;2.00;99.90
40808;DHT22;26523;52.504;13.498;2022-12-07T05:10:07;1.90;99.90
40808;DHT22;26523;52.504;13.498;2022-12-07T05:12:33;1.90;99.90
40808;DHT22;26523;52.504;13.498;2022-12-07T05:14:58;2.00;99.90
40808;DHT22;26523;52.504;13.498;2022-12-07T05:17:24;2.00;99.90
40808;DHT22;26523;52.504;13.498;2022-12-07T05:19:49;2.00;99.90
40808;DHT22;26523;52.504;13.498;2022-12-07T05:22:15;2.00;99.90
40808;DHT22;26523;52.504;13.498;2022-12-07T05:24:41;2.00;99.90
40808;DHT22;26523;52.504;13.498;2022-12-07T05:27:06;2.00;99.90
40808;DHT22;26523;52.504;13.498;2022-12-07T05:29:32;1.90;99.90
40808;DHT22;26523;52.504;13.498;2022-12-07T05:31:58;1.90;99.90
40808;DHT22;26523;52.504;13.498;2022-12-07T05:34:23;2.00;99.90
40808;DHT22;26523;52.504;13.498;2022-12-07T05:36:49;2.00;99.90
40808;DHT22;26523;52.504;13.498;2022-12-07T05:39:15;2.00;99.90
40808;DHT22;26523;52.504;13.498;2022-12-07T05:41:41;2.00;99.90
40808;DHT22;26523;52.504;13.498;2022-12-07T05:44:26;2.00;99.90
40808;DHT22;26523;52.504;13.498;2022-12-07T05:46:51;2.00;99.90
40808;DHT22;26523;52.504;13.498;2022-12-07T05:49:17;2.00;99.90
40808;DHT22;26523;52.504;13.498;2022-12-07T05:51:43;2.00;99.90
40808;DHT22;26523;52.504;13.498;2022-12-07T05:54:08;2.10;99.90
40808;DHT22;26523;52.504;13.498;2022-12-07T05:56:34;2.10;99.90
40808;DHT22;26523;52.504;13.498;2022-12-07T05:59:00;2.10;99.90
40808;DHT22;26523;52.504;13.498;2022-12-07T06:01:44;2.20;99.90
40808;DHT22;26523;52.504;13.498;2022-12-07T06:04:10;2.20;99.90
40808;DHT22;26523;52.504;13.498;2022-12-07T06:06:36;2.20;99.90
40808;DHT22;26523;52.504;13.498;2022-12-07T06:09:02;2.20;99.90
40808;DHT22;26523;52.504;13.498;2022-12-07T06:11:28;2.30;99.90
40808;DHT22;26523;52.504;13.498;2022-12-07T06:14:13;2.30;99.90
40808;DHT22;26523;52.504;13.498;2022-12-07T06:16:39;2.30;99.90
40808;DHT22;26523;52.504;13.498;2022-12-07T06:19:04;2.40;99.90
40808;DHT22;26523;52.504;13.498;2022-12-07T06:21:30;2.40;99.90
40808;DHT22;26523;52.504;13.498;2022-12-07T06:23:56;2.50;99.90
40808;DHT22;26523;52.504;13.498;2022-12-07T06:26:21;2.60;99.90
40808;DHT22;26523;52.504;13.498;2022-12-07T06:28:47;2.40;99.90
40808;DHT22;26523;52.504;13.498;2022-12-07T06:31:13;2.50;99.90
40808;DHT22;26523;52.504;13.498;2022-12-07T06:33:39;2.60;99.90
40808;DHT22;26523;52.504;13.498;2022-12-07T06:36:04;2.60;99.90
40808;DHT22;26523;52.504;13.498;2022-12-07T06:38:30;2.60;99.90
40808;DHT22;26523;52.504;13.498;2022-12-07T06:40:56;2.60;99.90
40808;DHT22;26523;52.504;13.498;2022-12-07T06:43:22;2.60;99.90
40808;DHT22;26523;52.504;13.498;2022-12-07T06:45:48;2.60;99.90
40808;DHT22;26523;52.504;13.498;2022-12-07T06:48:13;2.70;99.90
40808;DHT22;26523;52.504;13.498;2022-12-07T06:50:39;2.70;99.90
40808;DHT22;26523;52.504;13.498;2022-12-07T06:53:05;2.70;99.90
40808;DHT22;26523;52.504;13.498;2022-12-07T06:55:30;2.60;99.90
40808;DHT22;26523;52.504;13.498;2022-12-07T06:57:56;2.60;99.90
40808;DHT22;26523;52.504;13.498;2022-12-07T07:00:22;2.70;99.90
40808;DHT22;26523;52.504;13.498;2022-12-07T07:02:48;2.70;99.90
40808;DHT22;26523;52.504;13.498;2022-12-07T07:05:13;2.70;99.90
40808;DHT22;26523;52.504;13.498;2022-12-07T07:07:39;2.80;99.90
40808;DHT22;26523;52.504;13.498;2022-12-07T07:10:05;2.80;99.90
40808;DHT22;26523;52.504;13.498;2022-12-07T07:12:31;2.80;99.90
40808;DHT22;26523;52.504;13.498;2022-12-07T07:14:57;2.80;99.90
40808;DHT22;26523;52.504;13.498;2022-12-07T07:17:22;2.80;99.90
40808;DHT22;26523;52.504;13.498;2022-12-07T07:19:48;2.80;99.90
40808;DHT22;26523;52.504;13.498;2022-12-07T07:22:13;2.80;99.90
40808;DHT22;26523;52.504;13.498;2022-12-07T07:24:39;2.90;99.90
40808;DHT22;26523;52.504;13.498;2022-12-07T07:27:05;2.90;99.90
40808;DHT22;26523;52.504;13.498;2022-12-07T07:29:34;3.00;99.90
40808;DHT22;26523;52.504;13.498;2022-12-07T07:31:59;3.10;99.90
40808;DHT22;26523;52.504;13.498;2022-12-07T07:34:25;3.00;99.90
40808;DHT22;26523;52.504;13.498;2022-12-07T07:36:52;3.10;99.90
40808;DHT22;26523;52.504;13.498;2022-12-07T07:39:17;3.20;99.90
40808;DHT22;26523;52.504;13.498;2022-12-07T07:41:43;3.20;99.90
40808;DHT22;26523;52.504;13.498;2022-12-07T07:44:09;3.20;99.90
40808;DHT22;26523;52.504;13.498;2022-12-07T07:46:35;3.20;99.90
40808;DHT22;26523;52.504;13.498;2022-12-07T07:49:01;3.20;99.90
40808;DHT22;26523;52.504;13.498;2022-12-07T07:51:27;3.30;99.90
40808;DHT22;26523;52.504;13.498;2022-12-07T07:53:52;3.30;99.90
40808;DHT22;26523;52.504;13.498;2022-12-07T07:56:18;3.30;99.90
40808;DHT22;26523;52.504;13.498;2022-12-07T07:58:44;3.40;99.90
40808;DHT22;26523;52.504;13.498;2022-12-07T08:01:09;3.40;99.90
40808;DHT22;26523;52.504;13.498;2022-12-07T08:03:36;3.50;99.90
40808;DHT22;26523;52.504;13.498;2022-12-07T08:06:05;3.60;99.90
40808;DHT22;26523;52.504;13.498;2022-12-07T08:08:32;3.60;99.90
40808;DHT22;26523;52.504;13.498;2022-12-07T08:10:57;3.60;99.90
40808;DHT22;26523;52.504;13.498;2022-12-07T08:13:26;3.60;99.90
40808;DHT22;26523;52.504;13.498;2022-12-07T08:15:52;3.70;99.90
40808;DHT22;26523;52.504;13.498;2022-12-07T08:18:18;3.70;99.90
40808;DHT22;26523;52.504;13.498;2022-12-07T08:20:44;3.70;99.90
40808;DHT22;26523;52.504;13.498;2022-12-07T08:23:10;3.70;99.90
40808;DHT22;26523;52.504;13.498;2022-12-07T08:25:37;3.70;99.90
40808;DHT22;26523;52.504;13.498;2022-12-07T08:28:03;3.80;99.90
40808;DHT22;26523;52.504;13.498;2022-12-07T08:30:30;3.80;99.90
40808;DHT22;26523;52.504;13.498;2022-12-07T08:32:56;3.80;99.90
40808;DHT22;26523;52.504;13.498;2022-12-07T08:35:22;3.80;99.90
40808;DHT22;26523;52.504;13.498;2022-12-07T08:37:48;3.90;99.90
40808;DHT22;26523;52.504;13.498;2022-12-07T08:40:14;3.90;99.90
40808;DHT22;26523;52.504;13.498;2022-12-07T08:42:43;3.80;99.90
40808;DHT22;26523;52.504;13.498;2022-12-07T08:45:12;3.90;99.90
40808;DHT22;26523;52.504;13.498;2022-12-07T08:47:42;3.90;99.90
40808;DHT22;26523;52.504;13.498;2022-12-07T08:50:10;4.00;99.90
40808;DHT22;26523;52.504;13.498;2022-12-07T08:52:37;4.00;99.90
40808;DHT22;26523;52.504;13.498;2022-12-07T08:55:04;4.00;99.90
40808;DHT22;26523;52.504;13.498;2022-12-07T08:57:34;4.00;99.90
40808;DHT22;26523;52.504;13.498;2022-12-07T09:00:01;4.00;99.90
40808;DHT22;26523;52.504;13.498;2022-12-07T09:02:27;4.00;99.90
40808;DHT22;26523;52.504;13.498;2022-12-07T09:04:53;4.10;99.90
40808;DHT22;26523;52.504;13.498;2022-12-07T09:07:19;4.20;99.90
40808;DHT22;26523;52.504;13.498;2022-12-07T09:09:45;4.20;99.90
40808;DHT22;26523;52.504;13.498;2022-12-07T09:12:10;4.20;99.90
40808;DHT22;26523;52.504;13.498;2022-12-07T09:14:36;4.30;99.90
40808;DHT22;26523;52.504;13.498;2022-12-07T09:17:10;4.30;99.90
40808;DHT22;26523;52.504;13.498;2022-12-07T09:19:36;4.30;99.90
40808;DHT22;26523;52.504;13.498;2022-12-07T09:22:02;4.30;99.90
40808;DHT22;26523;52.504;13.498;2022-12-07T09:24:28;4.40;99.90
40808;DHT22;26523;52.504;13.498;2022-12-07T09:26:54;4.40;99.90
40808;DHT22;26523;52.504;13.498;2022-12-07T09:29:19;4.40;99.90
40808;DHT22;26523;52.504;13.498;2022-12-07T09:31:45;4.50;99.90
40808;DHT22;26523;52.504;13.498;2022-12-07T09:34:11;4.50;99.90
40808;DHT22;26523;52.504;13.498;2022-12-07T09:36:36;4.40;99.90
40808;DHT22;26523;52.504;13.498;2022-12-07T09:39:03;4.40;99.90
40808;DHT22;26523;52.504;13.498;2022-12-07T09:41:30;4.30;99.90
40808;DHT22;26523;52.504;13.498;2022-12-07T09:44:05;4.30;99.90
40808;DHT22;26523;52.504;13.498;2022-12-07T09:46:35;4.10;99.90
40808;DHT22;26523;52.504;13.498;2022-12-07T09:49:02;4.20;99.90
40808;DHT22;26523;52.504;13.498;2022-12-07T09:51:28;4.10;99.90
40808;DHT22;26523;52.504;13.498;2022-12-07T09:53:57;4.10;99.90
40808;DHT22;26523;52.504;13.498;2022-12-07T09:56:25;4.00;99.90
40808;DHT22;26523;52.504;13.498;2022-12-07T09:58:58;4.10;99.90
40808;DHT22;26523;52.504;13.498;2022-12-07T10:01:27;4.00;99.90
40808;DHT22;26523;52.504;13.498;2022-12-07T10:03:59;4.00;99.90
40808;DHT22;26523;52.504;13.498;2022-12-07T10:06:26;4.00;99.90
40808;DHT22;26523;52.504;13.498;2022-12-07T10:08:51;4.00;99.90
40808;DHT22;26523;52.504;13.498;2022-12-07T10:11:17;4.00;99.90
40808;DHT22;26523;52.504;13.498;2022-12-07T10:13:49;4.00;99.90
40808;DHT22;26523;52.504;13.498;2022-12-07T10:18:50;4.00;99.90
40808;DHT22;26523;52.504;13.498;2022-12-07T10:21:19;4.00;99.90
40808;DHT22;26523;52.504;13.498;2022-12-07T10:36:52;4.10;99.90
40808;DHT22;26523;52.504;13.498;2022-12-07T10:39:21;4.10;99.90
40808;DHT22;26523;52.504;13.498;2022-12-07T10:44:26;4.00;99.90
40808;DHT22;26523;52.504;13.498;2022-12-07T10:47:10;3.90;99.90
40808;DHT22;26523;52.504;13.498;2022-12-07T11:04:18;3.70;99.90
40808;DHT22;26523;52.504;13.498;2022-12-07T11:06:58;3.60;99.90
40808;DHT22;26523;52.504;13.498;2022-12-07T11:09:57;3.70;99.90
40808;DHT22;26523;52.504;13.498;2022-12-07T11:23:38;4.20;99.90
40808;DHT22;26523;52.504;13.498;2022-12-07T11:31:51;4.20;99.90
40808;DHT22;26523;52.504;13.498;2022-12-07T11:37:24;4.10;99.90
40808;DHT22;26523;52.504;13.498;2022-12-07T11:39:54;4.20;99.90
40808;DHT22;26523;52.504;13.498;2022-12-07T11:42:35;4.20;99.90
40808;DHT22;26523;52.504;13.498;2022-12-07T11:45:10;4.20;99.90
40808;DHT22;26523;52.504;13.498;2022-12-07T11:47:54;4.10;99.90
40808;DHT22;26523;52.504;13.498;2022-12-07T11:50:38;4.10;99.90
40808;DHT22;26523;52.504;13.498;2022-12-07T11:53:27;4.10;99.90
40808;DHT22;26523;52.504;13.498;2022-12-07T12:03:47;4.30;99.90
40808;DHT22;26523;52.504;13.498;2022-12-07T12:06:13;4.30;99.90
40808;DHT22;26523;52.504;13.498;2022-12-07T12:08:48;4.40;99.90
40808;DHT22;26523;52.504;13.498;2022-12-07T12:14:15;4.40;99.90
40808;DHT22;26523;52.504;13.498;2022-12-07T12:19:34;4.50;99.90
40808;DHT22;26523;52.504;13.498;2022-12-07T12:22:15;4.50;99.90
40808;DHT22;26523;52.504;13.498;2022-12-07T12:24:43;4.50;99.90
40808;DHT22;26523;52.504;13.498;2022-12-07T12:27:18;4.50;99.90
40808;DHT22;26523;52.504;13.498;2022-12-07T12:29:53;4.50;99.90
40808;DHT22;26523;52.504;13.498;2022-12-07T12:32:49;4.60;99.90
40808;DHT22;26523;52.504;13.498;2022-12-07T12:37:53;4.60;99.90
40808;DHT22;26523;52.504;13.498;2022-12-07T12:42:54;4.60;99.90
40808;DHT22;26523;52.504;13.498;2022-12-07T12:45:32;4.50;99.90
40808;DHT22;26523;52.504;13.498;2022-12-07T12:50:45;4.60;99.90
40808;DHT22;26523;52.504;13.498;2022-12-07T12:53:25;4.70;99.90
40808;DHT22;26523;52.504;13.498;2022-12-07T12:56:29;4.70;99.90
40808;DHT22;26523;52.504;13.498;2022-12-07T13:01:47;4.60;99.90
40808;DHT22;26523;52.504;13.498;2022-12-07T13:04:28;4.50;99.90
40808;DHT22;26523;52.504;13.498;2022-12-07T13:06:56;4.50;99.90
40808;DHT22;26523;52.504;13.498;2022-12-07T13:09:28;4.50;99.90
40808;DHT22;26523;52.504;13.498;2022-12-07T13:12:11;4.50;99.90
40808;DHT22;26523;52.504;13.498;2022-12-07T13:17:11;4.50;99.90
40808;DHT22;26523;52.504;13.498;2022-12-07T13:20:04;4.40;99.90
40808;DHT22;26523;52.504;13.498;2022-12-07T13:27:23;4.40;99.90
40808;DHT22;26523;52.504;13.498;2022-12-07T13:29:50;4.30;99.90
40808;DHT22;26523;52.504;13.498;2022-12-07T13:32:27;4.40;99.90
40808;DHT22;26523;52.504;13.498;2022-12-07T13:34:53;4.30;99.90
40808;DHT22;26523;52.504;13.498;2022-12-07T13:37:30;4.20;99.90
40808;DHT22;26523;52.504;13.498;2022-12-07T13:40:21;4.20;99.90
40808;DHT22;26523;52.504;13.498;2022-12-07T13:42:47;4.20;99.90
40808;DHT22;26523;52.504;13.498;2022-12-07T13:45:31;4.30;99.90
40808;DHT22;26523;52.504;13.498;2022-12-07T13:48:23;4.30;99.90
40808;DHT22;26523;52.504;13.498;2022-12-07T13:50:58;4.20;99.90
40808;DHT22;26523;52.504;13.498;2022-12-07T13:53:24;4.30;99.90
40808;DHT22;26523;52.504;13.498;2022-12-07T13:55:53;4.20;99.90
40808;DHT22;26523;52.504;13.498;2022-12-07T13:58:19;4.30;99.90
40808;DHT22;26523;52.504;13.498;2022-12-07T14:00:45;4.30;99.90
40808;DHT22;26523;52.504;13.498;2022-12-07T14:05:37;4.30;99.90
40808;DHT22;26523;52.504;13.498;2022-12-07T14:13:28;4.20;99.90
40808;DHT22;26523;52.504;13.498;2022-12-07T14:15:56;4.30;99.90
40808;DHT22;26523;52.504;13.498;2022-12-07T14:21:27;4.30;99.90
40808;DHT22;26523;52.504;13.498;2022-12-07T14:24:16;4.30;99.90
40808;DHT22;26523;52.504;13.498;2022-12-07T14:26:43;4.20;99.90
40808;DHT22;26523;52.504;13.498;2022-12-07T14:29:39;4.30;99.90
40808;DHT22;26523;52.504;13.498;2022-12-07T14:32:18;4.20;99.90
40808;DHT22;26523;52.504;13.498;2022-12-07T14:35:03;4.20;99.90
40808;DHT22;26523;52.504;13.498;2022-12-07T14:37:33;4.20;99.90
40808;DHT22;26523;52.504;13.498;2022-12-07T14:39:59;4.20;99.90
40808;DHT22;26523;52.504;13.498;2022-12-07T14:42:27;4.10;99.90
40808;DHT22;26523;52.504;13.498;2022-12-07T14:44:55;4.00;99.90
40808;DHT22;26523;52.504;13.498;2022-12-07T14:47:21;4.00;99.90
40808;DHT22;26523;52.504;13.498;2022-12-07T14:49:47;3.90;99.90
40808;DHT22;26523;52.504;13.498;2022-12-07T14:52:36;3.90;99.90
40808;DHT22;26523;52.504;13.498;2022-12-07T14:55:01;3.90;99.90
40808;DHT22;26523;52.504;13.498;2022-12-07T14:57:27;3.70;99.90
40808;DHT22;26523;52.504;13.498;2022-12-07T14:59:52;3.70;99.90
40808;DHT22;26523;52.504;13.498;2022-12-07T15:02:18;3.60;99.90
40808;DHT22;26523;52.504;13.498;2022-12-07T15:04:44;3.60;99.90
40808;DHT22;26523;52.504;13.498;2022-12-07T15:07:17;3.50;99.90
40808;DHT22;26523;52.504;13.498;2022-12-07T15:09:44;3.50;99.90
40808;DHT22;26523;52.504;13.498;2022-12-07T15:12:10;3.50;99.90
40808;DHT22;26523;52.504;13.498;2022-12-07T15:14:36;3.40;99.90
40808;DHT22;26523;52.504;13.498;2022-12-07T15:17:02;3.40;99.90
40808;DHT22;26523;52.504;13.498;2022-12-07T15:19:27;3.30;99.90
40808;DHT22;26523;52.504;13.498;2022-12-07T15:21:53;3.20;99.90
40808;DHT22;26523;52.504;13.498;2022-12-07T15:24:19;3.20;99.90
40808;DHT22;26523;52.504;13.498;2022-12-07T15:26:46;3.10;99.90
40808;DHT22;26523;52.504;13.498;2022-12-07T15:29:11;3.10;99.90
40808;DHT22;26523;52.504;13.498;2022-12-07T15:31:37;3.10;99.90
40808;DHT22;26523;52.504;13.498;2022-12-07T15:34:03;3.10;99.90
40808;DHT22;26523;52.504;13.498;2022-12-07T15:36:31;3.00;99.90
40808;DHT22;26523;52.504;13.498;2022-12-07T15:38:57;3.00;99.90
40808;DHT22;26523;52.504;13.498;2022-12-07T15:41:23;2.90;99.90
40808;DHT22;26523;52.504;13.498;2022-12-07T15:43:49;2.90;99.90
40808;DHT22;26523;52.504;13.498;2022-12-07T15:46:35;2.80;99.90
40808;DHT22;26523;52.504;13.498;2022-12-07T15:49:03;2.90;99.90
40808;DHT22;26523;52.504;13.498;2022-12-07T15:51:30;2.90;99.90
40808;DHT22;26523;52.504;13.498;2022-12-07T15:53:57;3.00;99.90
40808;DHT22;26523;52.504;13.498;2022-12-07T15:56:23;2.90;99.90
40808;DHT22;26523;52.504;13.498;2022-12-07T15:58:49;2.90;99.90
40808;DHT22;26523;52.504;13.498;2022-12-07T16:01:17;3.00;99.90
40808;DHT22;26523;52.504;13.498;2022-12-07T16:03:43;3.00;99.90
40808;DHT22;26523;52.504;13.498;2022-12-07T16:06:09;3.00;99.90
40808;DHT22;26523;52.504;13.498;2022-12-07T16:08:35;3.20;99.90
40808;DHT22;26523;52.504;13.498;2022-12-07T16:11:05;3.30;99.90
40808;DHT22;26523;52.504;13.498;2022-12-07T16:13:32;3.30;99.90
40808;DHT22;26523;52.504;13.498;2022-12-07T16:15:58;3.30;99.90
40808;DHT22;26523;52.504;13.498;2022-12-07T16:18:23;3.40;99.90
40808;DHT22;26523;52.504;13.498;2022-12-07T16:20:49;3.40;99.90
40808;DHT22;26523;52.504;13.498;2022-12-07T16:23:15;3.40;99.90
40808;DHT22;26523;52.504;13.498;2022-12-07T16:25:41;3.40;99.90
40808;DHT22;26523;52.504;13.498;2022-12-07T16:28:07;3.20;99.90
40808;DHT22;26523;52.504;13.498;2022-12-07T16:30:33;3.30;99.90
40808;DHT22;26523;52.504;13.498;2022-12-07T16:32:59;3.20;99.90
40808;DHT22;26523;52.504;13.498;2022-12-07T16:35:24;3.10;99.90
40808;DHT22;26523;52.504;13.498;2022-12-07T16:37:50;3.10;99.90
40808;DHT22;26523;52.504;13.498;2022-12-07T16:40:16;3.20;99.90
40808;DHT22;26523;52.504;13.498;2022-12-07T16:42:41;3.20;99.90
40808;DHT22;26523;52.504;13.498;2022-12-07T16:45:07;3.10;99.90
40808;DHT22;26523;52.504;13.498;2022-12-07T16:47:37;3.10;99.90
40808;DHT22;26523;52.504;13.498;2022-12-07T16:50:03;3.10;99.90
40808;DHT22;26523;52.504;13.498;2022-12-07T16:52:29;3.10;99.90
40808;DHT22;26523;52.504;13.498;2022-12-07T16:54:55;3.10;99.90
40808;DHT22;26523;52.504;13.498;2022-12-07T16:57:20;3.00;99.90
40808;DHT22;26523;52.504;13.498;2022-12-07T16:59:46;2.90;99.90
40808;DHT22;26523;52.504;13.498;2022-12-07T17:02:12;2.80;99.90
40808;DHT22;26523;52.504;13.498;2022-12-07T17:04:38;2.80;99.90
40808;DHT22;26523;52.504;13.498;2022-12-07T17:07:08;2.70;99.90
40808;DHT22;26523;52.504;13.498;2022-12-07T17:12:09;2.70;99.90
40808;DHT22;26523;52.504;13.498;2022-12-07T17:14:35;2.70;99.90
40808;DHT22;26523;52.504;13.498;2022-12-07T17:17:23;2.60;99.90
40808;DHT22;26523;52.504;13.498;2022-12-07T17:19:51;2.60;99.90
40808;DHT22;26523;52.504;13.498;2022-12-07T17:22:17;2.60;99.90
40808;DHT22;26523;52.504;13.498;2022-12-07T17:24:42;2.60;99.90
40808;DHT22;26523;52.504;13.498;2022-12-07T17:27:08;2.50;99.90
40808;DHT22;26523;52.504;13.498;2022-12-07T17:29:34;2.50;99.90
40808;DHT22;26523;52.504;13.498;2022-12-07T17:31:59;2.40;99.90
40808;DHT22;26523;52.504;13.498;2022-12-07T17:34:25;2.40;99.90
40808;DHT22;26523;52.504;13.498;2022-12-07T17:36:51;2.40;99.90
40808;DHT22;26523;52.504;13.498;2022-12-07T17:39:18;2.30;99.90
40808;DHT22;26523;52.504;13.498;2022-12-07T17:41:45;2.30;99.90
40808;DHT22;26523;52.504;13.498;2022-12-07T17:44:30;2.30;99.90